Stian-andre — LEHO — position and weather

sailwx.info

Track history (hours):
 
Tides and Currents Weather Stations Pressure Air Temp Water Temp Dewpoint Dewpoint Depression Visibility Wind Speed Wind Dir Waves Ship Positions

Stian-andre

Last reported at 2017-Oct-22 21:00 UTC. Time now 2017-Oct-22 21:20 UTC.
Position N 70°51' E 029°05'.

Length 18 m; draft 3.2 m.

Type: Fishing. MMSI: 257549800.

Date/timePositionNaut miles runAvg speedWind from/ knotsBaromVisibWave heightAir tempDewpointWater temp
2017-Oct-22 21:00N 70°51' E 029°05'0 0.0
2017-Oct-22 20:30N 70°51' E 029°05'0 0.0
2017-Oct-22 20:00N 70°51' E 029°05'0 0.0
2017-Oct-22 19:30N 70°51' E 029°05'0 0.0
2017-Oct-22 19:00N 70°51' E 029°05'0 0.0
2017-Oct-22 18:29N 70°51' E 029°05'0 0.0
2017-Oct-22 18:00N 70°51' E 029°05'0 0.0
2017-Oct-22 17:30N 70°51' E 029°05'0 0.0
2017-Oct-22 17:00N 70°51' E 029°05'0 0.0
2017-Oct-22 16:30N 70°51' E 029°05'1 2.6
2017-Oct-22 16:00N 70°52' E 029°09'3 7.1
2017-Oct-22 15:30N 70°55' E 029°13'2 3.8
2017-Oct-22 15:00N 70°57' E 029°16'1 1.0
2017-Oct-22 14:30N 70°57' E 029°15'1 1.4
2017-Oct-22 14:00N 70°57' E 029°17'1 1.6
2017-Oct-22 13:30N 70°57' E 029°19'0 0.9
2017-Oct-22 13:00N 70°57' E 029°20'1 2.0
2017-Oct-22 12:30N 70°57' E 029°17'0 0.3
2017-Oct-22 12:00N 70°57' E 029°17'1 1.4
2017-Oct-22 11:30N 70°57' E 029°19'1 1.3
2017-Oct-22 11:00N 70°56' E 029°21'1 1.1
2017-Oct-22 10:30N 70°56' E 029°21'2 3.6
2017-Oct-22 10:00N 70°57' E 029°17'3 6.7
2017-Oct-22 09:30N 70°58' E 029°08'0 0.2
2017-Oct-22 09:00N 70°58' E 029°08'1 1.1
2017-Oct-22 08:30N 70°58' E 029°09'1 1.4
2017-Oct-22 08:00N 70°57' E 029°11'1 1.7
2017-Oct-22 07:30N 70°57' E 029°14'0 0.8
2017-Oct-22 07:00N 70°57' E 029°15'2 4.3
2017-Oct-22 06:30N 70°55' E 029°10'0 0.8
2017-Oct-22 05:59N 70°56' E 029°11'1 1.2
2017-Oct-22 05:30N 70°56' E 029°11'1 1.3
2017-Oct-22 05:00N 70°57' E 029°11'1 1.5
2017-Oct-22 04:30N 70°57' E 029°11'1 1.4
2017-Oct-22 04:00N 70°58' E 029°11'1 1.5
2017-Oct-22 03:30N 70°59' E 029°09'3 5.7
2017-Oct-22 03:00N 70°58' E 029°00'1 1.4
2017-Oct-22 02:30N 70°59' E 029°02'1 1.8
2017-Oct-22 02:00N 70°59' E 029°05'0 0.6
2017-Oct-22 01:30N 70°59' E 029°05'1 1.3
2017-Oct-22 01:00N 70°58' E 029°06'4 7.6
2017-Oct-22 00:30N 70°57' E 029°17'0 1.0
2017-Oct-22 00:00N 70°57' E 029°18'2 4.8
2017-Oct-21 23:30N 70°58' E 029°13'3 5.2
2017-Oct-21 23:00N 70°59' E 029°06'0 0.6
2017-Oct-21 22:30N 70°60' E 029°06'1 1.1
2017-Oct-21 22:00N 70°59' E 029°08'1 1.7
2017-Oct-21 21:30N 70°59' E 029°10'0 0.3
2017-Oct-21 21:00N 70°59' E 029°11'0 0.4
2017-Oct-21 20:30N 70°59' E 029°11'1 1.1
2017-Oct-21 20:00N 70°59' E 029°12'1 1.6
2017-Oct-21 19:30N 70°59' E 029°10'1 1.6
2017-Oct-21 19:00N 70°59' E 029°07'1 1.0
2017-Oct-21 18:30N 70°59' E 029°07'2 3.5
2017-Oct-21 18:01N 70°57' E 029°09'1 1.9
2017-Oct-21 17:30N 70°58' E 029°09'0 0.7
2017-Oct-21 17:00N 70°58' E 029°09'1 1.8
2017-Oct-21 16:30N 70°59' E 029°06'1 2.9
2017-Oct-21 16:00N 70°59' E 029°02'1 2.7
2017-Oct-21 15:30N 70°58' E 029°05'2 3.0
2017-Oct-21 15:00N 70°57' E 029°08'1 1.3
2017-Oct-21 14:30N 70°58' E 029°07'1 0.9
2017-Oct-21 13:30N 70°58' E 029°06'0 0.6
2017-Oct-21 13:00N 70°59' E 029°05'0 0.3
2017-Oct-21 12:30N 70°59' E 029°05'0 0.1
2017-Oct-21 12:00N 70°59' E 029°05'0 0.9
2017-Oct-21 11:30N 70°59' E 029°06'0 0.9
2017-Oct-21 11:01N 70°59' E 029°08'0 0.4
2017-Oct-21 10:31N 70°59' E 029°08'1 2.2
2017-Oct-21 10:00N 70°59' E 029°11'0 0.6
2017-Oct-21 09:30N 70°59' E 029°12'1 2.7
2017-Oct-21 09:00N 70°57' E 029°12'0 0.7
2017-Oct-21 08:30N 70°58' E 029°12'1 1.2
2017-Oct-21 08:00N 70°57' E 029°14'1 1.8
2017-Oct-21 07:30N 70°57' E 029°17'1 1.2
2017-Oct-21 07:00N 70°57' E 029°19'1 1.6
2017-Oct-21 06:30N 70°56' E 029°19'4 7.3
2017-Oct-21 06:00N 70°54' E 029°26'0 0.6
2017-Oct-21 05:30N 70°54' E 029°27'3 5.7
2017-Oct-21 05:00N 70°54' E 029°18'4 7.5
2017-Oct-21 04:30N 70°52' E 029°08'1 2.1
2017-Oct-21 04:00N 70°51' E 029°05'0 0.0
2017-Oct-21 03:30N 70°51' E 029°05'0 0.0
2017-Oct-21 03:00N 70°51' E 029°05'0 0.0
2017-Oct-21 02:30N 70°51' E 029°05'0 0.0
2017-Oct-21 02:00N 70°51' E 029°05'0 0.0
2017-Oct-21 01:30N 70°51' E 029°05'0 0.0
2017-Oct-21 01:00N 70°51' E 029°05'0 0.0
2017-Oct-21 00:30N 70°51' E 029°05'0 0.0
2017-Oct-20 23:59N 70°51' E 029°05'0 0.0
2017-Oct-20 23:30N 70°51' E 029°05'0 0.0
2017-Oct-20 23:00N 70°51' E 029°05'0 0.0
2017-Oct-20 22:29N 70°51' E 029°05'0 0.0
2017-Oct-20 22:00N 70°51' E 029°05'0 0.0
2017-Oct-20 21:30N 70°51' E 029°05'0 0.0
2017-Oct-20 21:00N 70°51' E 029°05'0 0.0
2017-Oct-20 20:30N 70°51' E 029°05'0 0.0
2017-Oct-20 20:00N 70°51' E 029°05'0 0.0
2017-Oct-20 19:30N 70°51' E 029°05'0 0.0
2017-Oct-20 19:00N 70°51' E 029°05'0 0.0
2017-Oct-20 18:30N 70°51' E 029°05'0 0.0
2017-Oct-20 18:00N 70°51' E 029°05'0 0.0
2017-Oct-20 17:30N 70°51' E 029°05'0 0.0
2017-Oct-20 17:00N 70°51' E 029°05'0 0.0
2017-Oct-20 16:29N 70°51' E 029°05'0 0.0
2017-Oct-20 16:00N 70°51' E 029°05'0 0.0
2017-Oct-20 15:30N 70°51' E 029°05'0 0.0
2017-Oct-20 15:00N 70°51' E 029°05'0 0.0
2017-Oct-20 14:30N 70°51' E 029°05'0 0.0
2017-Oct-20 13:30N 70°51' E 029°05'0 0.0
2017-Oct-20 12:59N 70°51' E 029°05'0 0.0
2017-Oct-20 12:30N 70°51' E 029°05'0 0.0
2017-Oct-20 12:00N 70°51' E 029°05'0 0.0
2017-Oct-20 11:30N 70°51' E 029°05'0 0.0
2017-Oct-20 11:00N 70°51' E 029°05'0 0.0
2017-Oct-20 10:30N 70°51' E 029°05'0 0.0
2017-Oct-20 10:00N 70°51' E 029°05'0 0.0
2017-Oct-20 09:30N 70°51' E 029°05'0 0.0
2017-Oct-20 09:00N 70°51' E 029°05'0 0.0
2017-Oct-20 08:30N 70°51' E 029°05'0 0.0
2017-Oct-20 08:00N 70°51' E 029°05'0 0.0
2017-Oct-20 07:29N 70°51' E 029°05'0 0.0
2017-Oct-20 07:00N 70°51' E 029°05'0 0.1
2017-Oct-20 06:30N 70°51' E 029°06'3 6.0
2017-Oct-20 06:01N 70°54' E 029°11'2 3.7
2017-Oct-20 05:30N 70°56' E 029°12'1 1.8
2017-Oct-20 05:01N 70°56' E 029°11'1 2.1
2017-Oct-20 04:30N 70°57' E 029°10'1 1.2
2017-Oct-20 04:00N 70°58' E 029°09'1 1.7
2017-Oct-20 03:30N 70°58' E 029°07'1 2.0
2017-Oct-20 03:00N 70°59' E 029°04'0 0.3
2017-Oct-20 02:30N 70°59' E 029°04'3 6.9
2017-Oct-20 02:00N 70°60' E 028°54'2 5.0
2017-Oct-20 01:30N 71°01' E 028°48'0 0.5
2017-Oct-20 01:00N 71°01' E 028°47'1 1.8
2017-Oct-20 00:30N 71°02' E 028°46'1 1.6
2017-Oct-20 00:00N 71°03' E 028°45'1 1.1
2017-Oct-19 23:30N 71°03' E 028°43'1 2.5
2017-Oct-19 23:00N 71°04' E 028°41'3 6.2
2017-Oct-19 22:30N 71°05' E 028°32'1 1.0
2017-Oct-19 22:00N 71°05' E 028°33'2 3.5
2017-Oct-19 21:30N 71°06' E 028°29'0 0.9
2017-Oct-19 21:01N 71°06' E 028°29'0 0.9
2017-Oct-19 20:30N 71°06' E 028°31'1 2.0
2017-Oct-19 20:01N 71°05' E 028°33'0 0.2
2017-Oct-19 19:30N 71°05' E 028°33'1 1.9
2017-Oct-19 19:00N 71°05' E 028°30'4 7.0
2017-Oct-19 18:30N 71°08' E 028°22'4 7.5
2017-Oct-19 18:00N 71°10' E 028°13'4 7.6
2017-Oct-19 17:30N 71°13' E 028°04'4 7.2
2017-Oct-19 17:00N 71°12' E 027°53'4 7.4
2017-Oct-19 16:30N 71°12' E 027°41'1 2.1
2017-Oct-19 16:00N 71°12' E 027°38'1 1.3
2017-Oct-19 15:30N 71°12' E 027°36'1 2.3
2017-Oct-19 15:00N 71°12' E 027°33'0 0.8
2017-Oct-19 14:30N 71°11' E 027°32'0 0.8
2017-Oct-19 14:00N 71°11' E 027°32'4 8.2
2017-Oct-19 13:30N 71°08' E 027°22'4 7.8
2017-Oct-19 13:00N 71°06' E 027°12'3 6.3
2017-Oct-19 12:30N 71°09' E 027°17'2 4.7
2017-Oct-19 12:00N 71°11' E 027°19'3 6.2
2017-Oct-19 11:30N 71°08' E 027°16'2 3.8
2017-Oct-19 11:00N 71°07' E 027°12'0 1.0
2017-Oct-19 10:30N 71°07' E 027°14'4 7.4
2017-Oct-19 10:00N 71°06' E 027°03'4 7.1
2017-Oct-19 09:30N 71°04' E 026°53'4 7.0
2017-Oct-19 09:00N 71°03' E 026°42'4 7.2
2017-Oct-19 08:30N 71°02' E 026°32'4 7.2
2017-Oct-19 08:00N 71°01' E 026°22'4 7.2
2017-Oct-19 07:30N 70°59' E 026°11'3 6.9
2017-Oct-19 07:00N 70°59' E 026°01'1 1.2
2017-Oct-19 06:30N 70°59' E 026°02'0 0.0
2017-Oct-19 06:00N 70°59' E 026°02'0 0.0
2017-Oct-19 05:30N 70°59' E 026°02'0 0.0
2017-Oct-19 05:00N 70°59' E 026°02'0 0.0
2017-Oct-19 04:29N 70°59' E 026°02'0 0.0
2017-Oct-19 04:00N 70°59' E 026°02'0 0.0
2017-Oct-19 03:30N 70°59' E 026°02'0 0.0
2017-Oct-19 03:00N 70°59' E 026°02'0 0.0
2017-Oct-19 02:30N 70°59' E 026°02'0 0.0
2017-Oct-19 02:00N 70°59' E 026°02'0 0.0
2017-Oct-19 01:30N 70°59' E 026°02'0 0.0
2017-Oct-19 01:00N 70°59' E 026°02'0 0.0
2017-Oct-19 00:30N 70°59' E 026°02'0 0.0
2017-Oct-19 00:00N 70°59' E 026°02'1 2.5
2017-Oct-18 23:30N 70°58' E 025°60'4 7.4
2017-Oct-18 22:59N 70°57' E 025°49'4 8.0
2017-Oct-18 22:29N 70°56' E 025°37'4 8.3
2017-Oct-18 22:00N 70°58' E 025°26'4 8.2
2017-Oct-18 21:30N 70°59' E 025°14'4 7.7
2017-Oct-18 21:00N 70°59' E 025°03'4 7.3
2017-Oct-18 20:30N 71°00' E 024°51'4 7.1
2017-Oct-18 20:00N 71°01' E 024°41'3 7.0
2017-Oct-18 19:30N 71°02' E 024°31'3 6.9
2017-Oct-18 19:00N 71°02' E 024°20'3 6.8
2017-Oct-18 18:30N 71°02' E 024°10'3 6.2
2017-Oct-18 18:00N 71°02' E 024°00'3 6.1
2017-Oct-18 17:30N 71°04' E 023°52'3 5.9
2017-Oct-18 17:01N 71°07' E 023°53'1 1.2
2017-Oct-18 16:30N 71°07' E 023°55'1 1.9
2017-Oct-18 16:00N 71°06' E 023°54'1 2.0
2017-Oct-18 15:30N 71°05' E 023°53'0 0.3
2017-Oct-18 15:00N 71°05' E 023°53'2 2.5
2017-Oct-18 14:00N 71°06' E 023°46'2 4.8
2017-Oct-18 13:30N 71°08' E 023°42'2 3.2
2017-Oct-18 13:00N 71°09' E 023°40'1 1.7
2017-Oct-18 12:30N 71°09' E 023°42'2 4.1
2017-Oct-18 12:00N 71°08' E 023°47'3 5.5
2017-Oct-18 11:30N 71°10' E 023°54'0 0.4
2017-Oct-18 11:00N 71°09' E 023°53'1 2.3
2017-Oct-18 10:30N 71°09' E 023°51'1 1.5
2017-Oct-18 10:00N 71°08' E 023°49'0 0.4
2017-Oct-18 09:30N 71°08' E 023°49'1 2.5
2017-Oct-18 09:00N 71°09' E 023°51'0 0.5
2017-Oct-18 08:29N 71°09' E 023°51'1 2.2
2017-Oct-18 08:00N 71°08' E 023°49'1 1.8
2017-Oct-18 07:30N 71°07' E 023°47'1 1.6
2017-Oct-18 07:00N 71°08' E 023°49'0 0.5
2017-Oct-18 06:30N 71°08' E 023°49'1 2.3
2017-Oct-18 06:00N 71°07' E 023°47'1 1.5
2017-Oct-18 05:30N 71°07' E 023°49'1 1.0
2017-Oct-18 05:00N 71°06' E 023°47'0 0.7
2017-Oct-18 04:31N 71°06' E 023°48'0 0.6
2017-Oct-18 04:00N 71°07' E 023°48'0 0.5
2017-Oct-18 03:30N 71°07' E 023°48'0 0.3
2017-Oct-18 03:00N 71°07' E 023°48'0 0.2
2017-Oct-18 02:30N 71°07' E 023°48'0 0.3
2017-Oct-18 02:00N 71°07' E 023°47'0 0.5
2017-Oct-18 01:30N 71°07' E 023°47'0 0.4
2017-Oct-18 01:00N 71°07' E 023°46'1 2.5
2017-Oct-18 00:30N 71°07' E 023°50'1 2.1
2017-Oct-18 00:00N 71°07' E 023°48'2 3.5
2017-Oct-17 23:30N 71°08' E 023°43'1 2.4
2017-Oct-17 23:00N 71°09' E 023°42'1 1.3
2017-Oct-17 22:30N 71°09' E 023°44'2 3.5
2017-Oct-17 22:00N 71°07' E 023°46'4 7.2
2017-Oct-17 21:30N 71°04' E 023°49'4 7.8
2017-Oct-17 21:00N 71°01' E 023°41'4 7.4
2017-Oct-17 20:30N 70°58' E 023°36'4 7.6
2017-Oct-17 20:00N 70°54' E 023°35'4 7.7
2017-Oct-17 19:30N 70°50' E 023°34'4 7.3
2017-Oct-17 19:00N 70°46' E 023°32'4 7.1
2017-Oct-17 18:30N 70°44' E 023°25'4 7.3
2017-Oct-17 18:00N 70°41' E 023°19'4 8.0
2017-Oct-17 17:30N 70°37' E 023°12'4 8.2
2017-Oct-17 17:00N 70°34' E 023°05'4 8.2
2017-Oct-17 16:30N 70°31' E 022°57'4 7.7
2017-Oct-17 16:00N 70°30' E 022°46'4 7.7
2017-Oct-17 15:30N 70°29' E 022°34'4 7.4
2017-Oct-17 15:00N 70°28' E 022°24'4 7.6
2017-Oct-17 14:30N 70°27' E 022°13'4 7.8
2017-Oct-17 14:00N 70°26' E 022°01'4 7.7
2017-Oct-17 13:30N 70°25' E 021°50'4 7.7
2017-Oct-17 13:00N 70°23' E 021°40'4 8.1
2017-Oct-17 12:30N 70°20' E 021°32'4 8.2
2017-Oct-17 12:00N 70°17' E 021°23'4 7.9
2017-Oct-17 11:30N 70°15' E 021°14'4 7.8
2017-Oct-17 11:00N 70°12' E 021°08'4 8.7
2017-Oct-17 10:30N 70°07' E 021°05'4 8.1
2017-Oct-17 10:00N 70°04' E 021°02'2 3.4
2017-Oct-17 09:30N 70°02' E 020°59'0 0.0
2017-Oct-17 09:00N 70°02' E 020°59'0 0.0
2017-Oct-17 08:30N 70°02' E 020°59'1 2.0
2017-Oct-17 08:00N 70°02' E 021°02'1 1.9
2017-Oct-17 07:29N 70°02' E 020°59'0 0.0
2017-Oct-17 07:00N 70°02' E 020°59'0 0.0
2017-Oct-17 06:30N 70°02' E 020°59'0 0.0
2017-Oct-17 06:00N 70°02' E 020°59'0 0.0
2017-Oct-17 05:30N 70°02' E 020°59'0 0.0
2017-Oct-17 04:59N 70°02' E 020°59'0 0.0
2017-Oct-17 04:30N 70°02' E 020°59'0 0.0
2017-Oct-17 04:00N 70°02' E 020°59'0 0.0
2017-Oct-17 03:30N 70°02' E 020°59'0 0.0
2017-Oct-17 03:00N 70°02' E 020°59'0 0.0
2017-Oct-17 02:30N 70°02' E 020°59'0 0.0
2017-Oct-17 02:00N 70°02' E 020°59'0 0.0
2017-Oct-17 01:30N 70°02' E 020°59'2 3.7
2017-Oct-17 01:00N 70°04' E 020°58'4 8.7
2017-Oct-17 00:30N 70°02' E 020°46'4 8.5
2017-Oct-17 00:00N 70°01' E 020°34'4 8.1
2017-Oct-16 23:30N 69°60' E 020°23'4 8.1
2017-Oct-16 23:00N 69°58' E 020°12'3 6.5
2017-Oct-16 22:30N 69°55' E 020°06'0 0.2
2017-Oct-16 22:00N 69°56' E 020°06'1 1.9
2017-Oct-16 21:30N 69°57' E 020°06'2 4.7
2017-Oct-16 21:00N 69°55' E 020°10'0 0.4
2017-Oct-16 20:30N 69°55' E 020°10'0 0.1
2017-Oct-16 20:00N 69°55' E 020°10'0 0.0
2017-Oct-16 19:30N 69°55' E 020°10'0 0.0
2017-Oct-16 19:00N 69°55' E 020°10'0 0.0
2017-Oct-16 18:30N 69°55' E 020°10'0 0.0
2017-Oct-16 18:00N 69°55' E 020°10'0 0.0
2017-Oct-16 17:30N 69°55' E 020°10'0 0.0
2017-Oct-16 17:00N 69°55' E 020°10'0 0.0
2017-Oct-16 16:30N 69°55' E 020°10'0 0.0
2017-Oct-16 16:00N 69°55' E 020°10'0 0.0
2017-Oct-16 15:30N 69°55' E 020°10'0 0.0
2017-Oct-16 15:00N 69°55' E 020°10'0 0.0
2017-Oct-16 14:00N 69°55' E 020°10'0 0.0
2017-Oct-16 13:30N 69°55' E 020°10'0 0.0
2017-Oct-16 13:00N 69°55' E 020°10'0 0.0
2017-Oct-16 12:30N 69°55' E 020°10'0 0.0
2017-Oct-16 12:00N 69°55' E 020°10'0 0.0
2017-Oct-16 11:30N 69°55' E 020°10'0 0.0
2017-Oct-16 11:00N 69°55' E 020°10'0 0.0
2017-Oct-16 10:30N 69°55' E 020°10'0 0.0
2017-Oct-16 10:00N 69°55' E 020°10'0 0.0
2017-Oct-16 09:30N 69°55' E 020°10'0 0.0
2017-Oct-16 08:59N 69°55' E 020°10'0 0.1
2017-Oct-16 08:30N 69°55' E 020°10'0 0.1
2017-Oct-16 08:00N 69°55' E 020°10'0 0.0
2017-Oct-16 07:30N 69°55' E 020°10'0 0.0
2017-Oct-16 07:00N 69°55' E 020°10'0 0.0
2017-Oct-16 06:30N 69°55' E 020°10'0 0.0
2017-Oct-16 05:59N 69°55' E 020°10'0 0.0
2017-Oct-16 05:30N 69°55' E 020°10'0 0.0
2017-Oct-16 05:00N 69°55' E 020°10'0 0.0
2017-Oct-16 04:30N 69°55' E 020°10'0 0.0
2017-Oct-16 03:59N 69°55' E 020°10'0 0.0
2017-Oct-16 03:30N 69°55' E 020°10'0 0.0
2017-Oct-16 02:59N 69°55' E 020°10'0 0.0
2017-Oct-16 02:30N 69°55' E 020°10'0 0.0
2017-Oct-16 02:00N 69°55' E 020°10'0 0.0
2017-Oct-16 01:30N 69°55' E 020°10'0 0.0
2017-Oct-16 01:00N 69°55' E 020°10'0 0.0
2017-Oct-16 00:30N 69°55' E 020°10'0 0.0
2017-Oct-16 00:00N 69°55' E 020°10'0 0.0
2017-Oct-15 23:30N 69°55' E 020°10'0 0.0
2017-Oct-15 23:00N 69°55' E 020°10'0 0.0
2017-Oct-15 22:30N 69°55' E 020°10'0 0.0
2017-Oct-15 21:59N 69°55' E 020°10'0 0.0
2017-Oct-15 21:30N 69°55' E 020°10'0 0.0
2017-Oct-15 21:00N 69°55' E 020°10'0 0.0
2017-Oct-15 20:30N 69°55' E 020°10'0 0.0
2017-Oct-15 20:00N 69°55' E 020°10'0 0.0
2017-Oct-15 19:29N 69°55' E 020°10'0 0.0
2017-Oct-15 19:00N 69°55' E 020°10'0 0.0
2017-Oct-15 18:30N 69°55' E 020°10'0 0.0
2017-Oct-15 18:00N 69°55' E 020°10'0 0.0
2017-Oct-15 17:30N 69°55' E 020°10'0 0.0
2017-Oct-15 17:00N 69°55' E 020°10'0 0.0
2017-Oct-15 16:30N 69°55' E 020°10'0 0.0
2017-Oct-15 16:00N 69°55' E 020°10'0 0.0
2017-Oct-15 15:30N 69°55' E 020°10'0 0.0
2017-Oct-15 15:00N 69°55' E 020°10'0 0.0
2017-Oct-15 14:00N 69°55' E 020°10'0 0.0
2017-Oct-15 13:30N 69°55' E 020°10'0 0.0
2017-Oct-15 13:00N 69°55' E 020°10'0 0.0
2017-Oct-15 12:30N 69°55' E 020°10'0 0.0
2017-Oct-15 11:59N 69°55' E 020°10'0 0.0
2017-Oct-15 11:30N 69°55' E 020°10'0 0.0
2017-Oct-15 11:00N 69°55' E 020°10'0 0.0
2017-Oct-15 10:30N 69°55' E 020°10'0 0.0
2017-Oct-15 09:59N 69°55' E 020°10'0 0.0
2017-Oct-15 09:30N 69°55' E 020°10'0 0.0
2017-Oct-15 09:00N 69°55' E 020°10'0 0.0
2017-Oct-15 08:30N 69°55' E 020°10'0 0.0
2017-Oct-15 08:00N 69°55' E 020°10'0 0.0
2017-Oct-15 07:30N 69°55' E 020°10'0 0.0
2017-Oct-15 07:00N 69°55' E 020°10'0 0.0
2017-Oct-15 06:30N 69°55' E 020°10'0 0.0
2017-Oct-15 06:00N 69°55' E 020°10'0 0.0
2017-Oct-15 05:30N 69°55' E 020°10'0 0.0
2017-Oct-15 05:00N 69°55' E 020°10'0 0.0
2017-Oct-15 04:30N 69°55' E 020°10'0 0.0
2017-Oct-15 04:00N 69°55' E 020°10'0 0.0
2017-Oct-15 03:30N 69°55' E 020°10'0 0.0
2017-Oct-15 03:00N 69°55' E 020°10'0 0.0
2017-Oct-15 02:30N 69°55' E 020°10'0 0.0
2017-Oct-15 02:00N 69°55' E 020°10'0 0.0
2017-Oct-15 01:30N 69°55' E 020°10'0 0.0
2017-Oct-15 01:00N 69°55' E 020°10'0 0.0
2017-Oct-15 00:30N 69°55' E 020°10'0 0.0
2017-Oct-14 23:59N 69°55' E 020°10'0 0.0
2017-Oct-14 23:30N 69°55' E 020°10'0 0.0
2017-Oct-14 23:00N 69°55' E 020°10'0 0.0
2017-Oct-14 22:30N 69°55' E 020°10'0 0.0
2017-Oct-14 22:00N 69°55' E 020°10'0 0.0
2017-Oct-14 21:30N 69°55' E 020°10'0 0.0
2017-Oct-14 21:00N 69°55' E 020°10'0 0.0
2017-Oct-14 20:30N 69°55' E 020°10'0 0.0
2017-Oct-14 20:00N 69°55' E 020°10'0 0.0
2017-Oct-14 19:30N 69°55' E 020°10'0 0.0
2017-Oct-14 19:00N 69°55' E 020°10'0 0.0
2017-Oct-14 18:30N 69°55' E 020°10'0 0.0
2017-Oct-14 17:59N 69°55' E 020°10'0 0.0
2017-Oct-14 17:30N 69°55' E 020°10'0 0.0
2017-Oct-14 17:00N 69°55' E 020°10'0 0.0
2017-Oct-14 16:30N 69°55' E 020°10'2 4.3
2017-Oct-14 16:00N 69°57' E 020°10'4 8.1
2017-Oct-14 15:30N 69°55' E 019°59'4 8.3
2017-Oct-14 15:00N 69°52' E 019°50'4 8.4
2017-Oct-14 14:30N 69°50' E 019°39'4 8.7
2017-Oct-14 14:00N 69°49' E 019°28'4 8.6
2017-Oct-14 13:30N 69°47' E 019°16'4 8.5
2017-Oct-14 13:00N 69°45' E 019°06'4 8.5
2017-Oct-14 12:30N 69°41' E 019°01'2 3.3
2017-Oct-14 12:00N 69°39' E 018°58'0 0.0
2017-Oct-14 11:30N 69°39' E 018°58'0 0.0
2017-Oct-14 11:00N 69°39' E 018°58'0 0.0
2017-Oct-14 10:30N 69°39' E 018°58'0 0.0
2017-Oct-14 10:00N 69°39' E 018°58'0 0.0
2017-Oct-14 09:30N 69°39' E 018°58'0 0.0
2017-Oct-14 08:59N 69°39' E 018°58'0 0.0
2017-Oct-14 08:30N 69°39' E 018°58'0 0.0
2017-Oct-14 08:00N 69°39' E 018°58'0 0.0
2017-Oct-14 07:30N 69°39' E 018°58'0 0.0
2017-Oct-14 07:00N 69°39' E 018°58'0 0.0
2017-Oct-14 06:29N 69°39' E 018°58'0 0.0
2017-Oct-14 06:00N 69°39' E 018°58'0 0.0
2017-Oct-14 05:30N 69°39' E 018°58'0 0.0
2017-Oct-14 05:00N 69°39' E 018°58'0 0.0
2017-Oct-14 04:29N 69°39' E 018°58'0 0.0
2017-Oct-14 03:59N 69°39' E 018°58'0 0.0
2017-Oct-14 03:30N 69°39' E 018°58'0 0.0
2017-Oct-14 03:00N 69°39' E 018°58'0 0.0
2017-Oct-14 02:30N 69°39' E 018°58'0 0.0
2017-Oct-14 01:59N 69°39' E 018°58'0 0.0
2017-Oct-14 01:30N 69°39' E 018°58'0 0.0
2017-Oct-14 01:00N 69°39' E 018°58'0 0.0
2017-Oct-14 00:30N 69°39' E 018°58'0 0.0
2017-Oct-14 00:00N 69°39' E 018°58'0 0.0
2017-Oct-13 23:30N 69°39' E 018°58'0 0.0
2017-Oct-13 23:00N 69°39' E 018°58'0 0.0
2017-Oct-13 22:30N 69°39' E 018°58'0 0.0
2017-Oct-13 22:00N 69°39' E 018°58'0 0.0
2017-Oct-13 21:30N 69°39' E 018°58'0 0.0
2017-Oct-13 21:00N 69°39' E 018°58'0 0.0
2017-Oct-13 20:30N 69°39' E 018°58'0 0.0
2017-Oct-13 20:00N 69°39' E 018°58'0 0.0
2017-Oct-13 19:30N 69°39' E 018°58'0 0.0
2017-Oct-13 19:00N 69°39' E 018°58'0 0.0
2017-Oct-13 18:30N 69°39' E 018°58'0 0.0
2017-Oct-13 18:00N 69°39' E 018°58'0 0.0
2017-Oct-13 17:30N 69°39' E 018°58'0 0.0
2017-Oct-13 17:00N 69°39' E 018°58'0 0.0
2017-Oct-13 16:30N 69°39' E 018°58'0 0.0
2017-Oct-13 16:00N 69°39' E 018°58'0 0.0
2017-Oct-13 15:30N 69°39' E 018°58'0 0.0
2017-Oct-13 15:00N 69°39' E 018°58'0 0.0
2017-Oct-13 14:30N 69°39' E 018°58'0 0.0
2017-Oct-13 13:59N 69°39' E 018°58'0 0.3
2017-Oct-13 13:29N 69°39' E 018°58'0 0.3
2017-Oct-13 13:00N 69°39' E 018°58'0 0.0
2017-Oct-13 12:29N 69°39' E 018°58'0 0.0
2017-Oct-13 12:00N 69°39' E 018°58'0 0.0
2017-Oct-13 11:30N 69°39' E 018°58'0 0.0
2017-Oct-13 11:00N 69°39' E 018°58'0 0.0
2017-Oct-13 10:31N 69°39' E 018°58'0 0.0
2017-Oct-13 10:00N 69°39' E 018°58'0 0.0
2017-Oct-13 09:30N 69°39' E 018°58'0 0.0
2017-Oct-13 09:00N 69°39' E 018°58'0 0.0
2017-Oct-13 08:30N 69°39' E 018°58'0 0.0
2017-Oct-13 08:01N 69°39' E 018°58'  
Track history (hours):
 
Tides and Currents Weather Stations Pressure Air Temp Water Temp Dewpoint Dewpoint Depression Visibility Wind Speed Wind Dir Waves Ship Positions

Stian-andre

Last reported at 2017-Oct-22 21:00 UTC. Time now 2017-Oct-22 21:20 UTC.
Position N 70°51' E 029°05'.

Length 18 m; draft 3.2 m.

Type: Fishing. MMSI: 257549800.

Date/timePositionNaut miles runAvg speedWind from/ knotsBaromVisibWave heightAir tempDewpointWater temp
2017-Oct-22 21:00N 70°51' E 029°05'0 0.0
2017-Oct-22 20:30N 70°51' E 029°05'0 0.0
2017-Oct-22 20:00N 70°51' E 029°05'0 0.0
2017-Oct-22 19:30N 70°51' E 029°05'0 0.0
2017-Oct-22 19:00N 70°51' E 029°05'0 0.0
2017-Oct-22 18:29N 70°51' E 029°05'0 0.0
2017-Oct-22 18:00N 70°51' E 029°05'0 0.0
2017-Oct-22 17:30N 70°51' E 029°05'0 0.0
2017-Oct-22 17:00N 70°51' E 029°05'0 0.0
2017-Oct-22 16:30N 70°51' E 029°05'1 2.6
2017-Oct-22 16:00N 70°52' E 029°09'3 7.1
2017-Oct-22 15:30N 70°55' E 029°13'2 3.8
2017-Oct-22 15:00N 70°57' E 029°16'1 1.0
2017-Oct-22 14:30N 70°57' E 029°15'1 1.4
2017-Oct-22 14:00N 70°57' E 029°17'1 1.6
2017-Oct-22 13:30N 70°57' E 029°19'0 0.9
2017-Oct-22 13:00N 70°57' E 029°20'1 2.0
2017-Oct-22 12:30N 70°57' E 029°17'0 0.3
2017-Oct-22 12:00N 70°57' E 029°17'1 1.4
2017-Oct-22 11:30N 70°57' E 029°19'1 1.3
2017-Oct-22 11:00N 70°56' E 029°21'1 1.1
2017-Oct-22 10:30N 70°56' E 029°21'2 3.6
2017-Oct-22 10:00N 70°57' E 029°17'3 6.7
2017-Oct-22 09:30N 70°58' E 029°08'0 0.2
2017-Oct-22 09:00N 70°58' E 029°08'1 1.1
2017-Oct-22 08:30N 70°58' E 029°09'1 1.4
2017-Oct-22 08:00N 70°57' E 029°11'1 1.7
2017-Oct-22 07:30N 70°57' E 029°14'0 0.8
2017-Oct-22 07:00N 70°57' E 029°15'2 4.3
2017-Oct-22 06:30N 70°55' E 029°10'0 0.8
2017-Oct-22 05:59N 70°56' E 029°11'1 1.2
2017-Oct-22 05:30N 70°56' E 029°11'1 1.3
2017-Oct-22 05:00N 70°57' E 029°11'1 1.5
2017-Oct-22 04:30N 70°57' E 029°11'1 1.4
2017-Oct-22 04:00N 70°58' E 029°11'1 1.5
2017-Oct-22 03:30N 70°59' E 029°09'3 5.7
2017-Oct-22 03:00N 70°58' E 029°00'1 1.4
2017-Oct-22 02:30N 70°59' E 029°02'1 1.8
2017-Oct-22 02:00N 70°59' E 029°05'0 0.6
2017-Oct-22 01:30N 70°59' E 029°05'1 1.3
2017-Oct-22 01:00N 70°58' E 029°06'4 7.6
2017-Oct-22 00:30N 70°57' E 029°17'0 1.0
2017-Oct-22 00:00N 70°57' E 029°18'2 4.8
2017-Oct-21 23:30N 70°58' E 029°13'3 5.2
2017-Oct-21 23:00N 70°59' E 029°06'0 0.6
2017-Oct-21 22:30N 70°60' E 029°06'1 1.1
2017-Oct-21 22:00N 70°59' E 029°08'1 1.7
2017-Oct-21 21:30N 70°59' E 029°10'0 0.3
2017-Oct-21 21:00N 70°59' E 029°11'0 0.4
2017-Oct-21 20:30N 70°59' E 029°11'1 1.1
2017-Oct-21 20:00N 70°59' E 029°12'1 1.6
2017-Oct-21 19:30N 70°59' E 029°10'1 1.6
2017-Oct-21 19:00N 70°59' E 029°07'1 1.0
2017-Oct-21 18:30N 70°59' E 029°07'2 3.5
2017-Oct-21 18:01N 70°57' E 029°09'1 1.9
2017-Oct-21 17:30N 70°58' E 029°09'0 0.7
2017-Oct-21 17:00N 70°58' E 029°09'1 1.8
2017-Oct-21 16:30N 70°59' E 029°06'1 2.9
2017-Oct-21 16:00N 70°59' E 029°02'1 2.7
2017-Oct-21 15:30N 70°58' E 029°05'2 3.0
2017-Oct-21 15:00N 70°57' E 029°08'1 1.3
2017-Oct-21 14:30N 70°58' E 029°07'1 0.9
2017-Oct-21 13:30N 70°58' E 029°06'0 0.6
2017-Oct-21 13:00N 70°59' E 029°05'0 0.3
2017-Oct-21 12:30N 70°59' E 029°05'0 0.1
2017-Oct-21 12:00N 70°59' E 029°05'0 0.9
2017-Oct-21 11:30N 70°59' E 029°06'0 0.9
2017-Oct-21 11:01N 70°59' E 029°08'0 0.4
2017-Oct-21 10:31N 70°59' E 029°08'1 2.2
2017-Oct-21 10:00N 70°59' E 029°11'0 0.6
2017-Oct-21 09:30N 70°59' E 029°12'1 2.7
2017-Oct-21 09:00N 70°57' E 029°12'0 0.7
2017-Oct-21 08:30N 70°58' E 029°12'1 1.2
2017-Oct-21 08:00N 70°57' E 029°14'1 1.8
2017-Oct-21 07:30N 70°57' E 029°17'1 1.2
2017-Oct-21 07:00N 70°57' E 029°19'1 1.6
2017-Oct-21 06:30N 70°56' E 029°19'4 7.3
2017-Oct-21 06:00N 70°54' E 029°26'0 0.6
2017-Oct-21 05:30N 70°54' E 029°27'3 5.7
2017-Oct-21 05:00N 70°54' E 029°18'4 7.5
2017-Oct-21 04:30N 70°52' E 029°08'1 2.1
2017-Oct-21 04:00N 70°51' E 029°05'0 0.0
2017-Oct-21 03:30N 70°51' E 029°05'0 0.0
2017-Oct-21 03:00N 70°51' E 029°05'0 0.0
2017-Oct-21 02:30N 70°51' E 029°05'0 0.0
2017-Oct-21 02:00N 70°51' E 029°05'0 0.0
2017-Oct-21 01:30N 70°51' E 029°05'0 0.0
2017-Oct-21 01:00N 70°51' E 029°05'0 0.0
2017-Oct-21 00:30N 70°51' E 029°05'0 0.0
2017-Oct-20 23:59N 70°51' E 029°05'0 0.0
2017-Oct-20 23:30N 70°51' E 029°05'0 0.0
2017-Oct-20 23:00N 70°51' E 029°05'0 0.0
2017-Oct-20 22:29N 70°51' E 029°05'0 0.0
2017-Oct-20 22:00N 70°51' E 029°05'0 0.0
2017-Oct-20 21:30N 70°51' E 029°05'0 0.0
2017-Oct-20 21:00N 70°51' E 029°05'0 0.0
2017-Oct-20 20:30N 70°51' E 029°05'0 0.0
2017-Oct-20 20:00N 70°51' E 029°05'0 0.0
2017-Oct-20 19:30N 70°51' E 029°05'0 0.0
2017-Oct-20 19:00N 70°51' E 029°05'0 0.0
2017-Oct-20 18:30N 70°51' E 029°05'0 0.0
2017-Oct-20 18:00N 70°51' E 029°05'0 0.0
2017-Oct-20 17:30N 70°51' E 029°05'0 0.0
2017-Oct-20 17:00N 70°51' E 029°05'0 0.0
2017-Oct-20 16:29N 70°51' E 029°05'0 0.0
2017-Oct-20 16:00N 70°51' E 029°05'0 0.0
2017-Oct-20 15:30N 70°51' E 029°05'0 0.0
2017-Oct-20 15:00N 70°51' E 029°05'0 0.0
2017-Oct-20 14:30N 70°51' E 029°05'0 0.0
2017-Oct-20 13:30N 70°51' E 029°05'0 0.0
2017-Oct-20 12:59N 70°51' E 029°05'0 0.0
2017-Oct-20 12:30N 70°51' E 029°05'0 0.0
2017-Oct-20 12:00N 70°51' E 029°05'0 0.0
2017-Oct-20 11:30N 70°51' E 029°05'0 0.0
2017-Oct-20 11:00N 70°51' E 029°05'0 0.0
2017-Oct-20 10:30N 70°51' E 029°05'0 0.0
2017-Oct-20 10:00N 70°51' E 029°05'0 0.0
2017-Oct-20 09:30N 70°51' E 029°05'0 0.0
2017-Oct-20 09:00N 70°51' E 029°05'0 0.0
2017-Oct-20 08:30N 70°51' E 029°05'0 0.0
2017-Oct-20 08:00N 70°51' E 029°05'0 0.0
2017-Oct-20 07:29N 70°51' E 029°05'0 0.0
2017-Oct-20 07:00N 70°51' E 029°05'0 0.1
2017-Oct-20 06:30N 70°51' E 029°06'3 6.0
2017-Oct-20 06:01N 70°54' E 029°11'2 3.7
2017-Oct-20 05:30N 70°56' E 029°12'1 1.8
2017-Oct-20 05:01N 70°56' E 029°11'1 2.1
2017-Oct-20 04:30N 70°57' E 029°10'1 1.2
2017-Oct-20 04:00N 70°58' E 029°09'1 1.7
2017-Oct-20 03:30N 70°58' E 029°07'1 2.0
2017-Oct-20 03:00N 70°59' E 029°04'0 0.3
2017-Oct-20 02:30N 70°59' E 029°04'3 6.9
2017-Oct-20 02:00N 70°60' E 028°54'2 5.0
2017-Oct-20 01:30N 71°01' E 028°48'0 0.5
2017-Oct-20 01:00N 71°01' E 028°47'1 1.8
2017-Oct-20 00:30N 71°02' E 028°46'1 1.6
2017-Oct-20 00:00N 71°03' E 028°45'1 1.1
2017-Oct-19 23:30N 71°03' E 028°43'1 2.5
2017-Oct-19 23:00N 71°04' E 028°41'3 6.2
2017-Oct-19 22:30N 71°05' E 028°32'1 1.0
2017-Oct-19 22:00N 71°05' E 028°33'2 3.5
2017-Oct-19 21:30N 71°06' E 028°29'0 0.9
2017-Oct-19 21:01N 71°06' E 028°29'0 0.9
2017-Oct-19 20:30N 71°06' E 028°31'1 2.0
2017-Oct-19 20:01N 71°05' E 028°33'0 0.2
2017-Oct-19 19:30N 71°05' E 028°33'1 1.9
2017-Oct-19 19:00N 71°05' E 028°30'4 7.0
2017-Oct-19 18:30N 71°08' E 028°22'4 7.5
2017-Oct-19 18:00N 71°10' E 028°13'4 7.6
2017-Oct-19 17:30N 71°13' E 028°04'4 7.2
2017-Oct-19 17:00N 71°12' E 027°53'4 7.4
2017-Oct-19 16:30N 71°12' E 027°41'1 2.1
2017-Oct-19 16:00N 71°12' E 027°38'1 1.3
2017-Oct-19 15:30N 71°12' E 027°36'1 2.3
2017-Oct-19 15:00N 71°12' E 027°33'0 0.8
2017-Oct-19 14:30N 71°11' E 027°32'0 0.8
2017-Oct-19 14:00N 71°11' E 027°32'4 8.2
2017-Oct-19 13:30N 71°08' E 027°22'4 7.8
2017-Oct-19 13:00N 71°06' E 027°12'3 6.3
2017-Oct-19 12:30N 71°09' E 027°17'2 4.7
2017-Oct-19 12:00N 71°11' E 027°19'3 6.2
2017-Oct-19 11:30N 71°08' E 027°16'2 3.8
2017-Oct-19 11:00N 71°07' E 027°12'0 1.0
2017-Oct-19 10:30N 71°07' E 027°14'4 7.4
2017-Oct-19 10:00N 71°06' E 027°03'4 7.1
2017-Oct-19 09:30N 71°04' E 026°53'4 7.0
2017-Oct-19 09:00N 71°03' E 026°42'4 7.2
2017-Oct-19 08:30N 71°02' E 026°32'4 7.2
2017-Oct-19 08:00N 71°01' E 026°22'4 7.2
2017-Oct-19 07:30N 70°59' E 026°11'3 6.9
2017-Oct-19 07:00N 70°59' E 026°01'1 1.2
2017-Oct-19 06:30N 70°59' E 026°02'0 0.0
2017-Oct-19 06:00N 70°59' E 026°02'0 0.0
2017-Oct-19 05:30N 70°59' E 026°02'0 0.0
2017-Oct-19 05:00N 70°59' E 026°02'0 0.0
2017-Oct-19 04:29N 70°59' E 026°02'0 0.0
2017-Oct-19 04:00N 70°59' E 026°02'0 0.0
2017-Oct-19 03:30N 70°59' E 026°02'0 0.0
2017-Oct-19 03:00N 70°59' E 026°02'0 0.0
2017-Oct-19 02:30N 70°59' E 026°02'0 0.0
2017-Oct-19 02:00N 70°59' E 026°02'0 0.0
2017-Oct-19 01:30N 70°59' E 026°02'0 0.0
2017-Oct-19 01:00N 70°59' E 026°02'0 0.0
2017-Oct-19 00:30N 70°59' E 026°02'0 0.0
2017-Oct-19 00:00N 70°59' E 026°02'1 2.5
2017-Oct-18 23:30N 70°58' E 025°60'4 7.4
2017-Oct-18 22:59N 70°57' E 025°49'4 8.0
2017-Oct-18 22:29N 70°56' E 025°37'4 8.3
2017-Oct-18 22:00N 70°58' E 025°26'4 8.2
2017-Oct-18 21:30N 70°59' E 025°14'4 7.7
2017-Oct-18 21:00N 70°59' E 025°03'4 7.3
2017-Oct-18 20:30N 71°00' E 024°51'4 7.1
2017-Oct-18 20:00N 71°01' E 024°41'3 7.0
2017-Oct-18 19:30N 71°02' E 024°31'3 6.9
2017-Oct-18 19:00N 71°02' E 024°20'3 6.8
2017-Oct-18 18:30N 71°02' E 024°10'3 6.2
2017-Oct-18 18:00N 71°02' E 024°00'3 6.1
2017-Oct-18 17:30N 71°04' E 023°52'3 5.9
2017-Oct-18 17:01N 71°07' E 023°53'1 1.2
2017-Oct-18 16:30N 71°07' E 023°55'1 1.9
2017-Oct-18 16:00N 71°06' E 023°54'1 2.0
2017-Oct-18 15:30N 71°05' E 023°53'0 0.3
2017-Oct-18 15:00N 71°05' E 023°53'2 2.5
2017-Oct-18 14:00N 71°06' E 023°46'2 4.8
2017-Oct-18 13:30N 71°08' E 023°42'2 3.2
2017-Oct-18 13:00N 71°09' E 023°40'1 1.7
2017-Oct-18 12:30N 71°09' E 023°42'2 4.1
2017-Oct-18 12:00N 71°08' E 023°47'3 5.5
2017-Oct-18 11:30N 71°10' E 023°54'0 0.4
2017-Oct-18 11:00N 71°09' E 023°53'1 2.3
2017-Oct-18 10:30N 71°09' E 023°51'1 1.5
2017-Oct-18 10:00N 71°08' E 023°49'0 0.4
2017-Oct-18 09:30N 71°08' E 023°49'1 2.5
2017-Oct-18 09:00N 71°09' E 023°51'0 0.5
2017-Oct-18 08:29N 71°09' E 023°51'1 2.2
2017-Oct-18 08:00N 71°08' E 023°49'1 1.8
2017-Oct-18 07:30N 71°07' E 023°47'1 1.6
2017-Oct-18 07:00N 71°08' E 023°49'0 0.5
2017-Oct-18 06:30N 71°08' E 023°49'1 2.3
2017-Oct-18 06:00N 71°07' E 023°47'1 1.5
2017-Oct-18 05:30N 71°07' E 023°49'1 1.0
2017-Oct-18 05:00N 71°06' E 023°47'0 0.7
2017-Oct-18 04:31N 71°06' E 023°48'0 0.6
2017-Oct-18 04:00N 71°07' E 023°48'0 0.5
2017-Oct-18 03:30N 71°07' E 023°48'0 0.3
2017-Oct-18 03:00N 71°07' E 023°48'0 0.2
2017-Oct-18 02:30N 71°07' E 023°48'0 0.3
2017-Oct-18 02:00N 71°07' E 023°47'0 0.5
2017-Oct-18 01:30N 71°07' E 023°47'0 0.4
2017-Oct-18 01:00N 71°07' E 023°46'1 2.5
2017-Oct-18 00:30N 71°07' E 023°50'1 2.1
2017-Oct-18 00:00N 71°07' E 023°48'2 3.5
2017-Oct-17 23:30N 71°08' E 023°43'1 2.4
2017-Oct-17 23:00N 71°09' E 023°42'1 1.3
2017-Oct-17 22:30N 71°09' E 023°44'2 3.5
2017-Oct-17 22:00N 71°07' E 023°46'4 7.2
2017-Oct-17 21:30N 71°04' E 023°49'4 7.8
2017-Oct-17 21:00N 71°01' E 023°41'4 7.4
2017-Oct-17 20:30N 70°58' E 023°36'4 7.6
2017-Oct-17 20:00N 70°54' E 023°35'4 7.7
2017-Oct-17 19:30N 70°50' E 023°34'4 7.3
2017-Oct-17 19:00N 70°46' E 023°32'4 7.1
2017-Oct-17 18:30N 70°44' E 023°25'4 7.3
2017-Oct-17 18:00N 70°41' E 023°19'4 8.0
2017-Oct-17 17:30N 70°37' E 023°12'4 8.2
2017-Oct-17 17:00N 70°34' E 023°05'4 8.2
2017-Oct-17 16:30N 70°31' E 022°57'4 7.7
2017-Oct-17 16:00N 70°30' E 022°46'4 7.7
2017-Oct-17 15:30N 70°29' E 022°34'4 7.4
2017-Oct-17 15:00N 70°28' E 022°24'4 7.6
2017-Oct-17 14:30N 70°27' E 022°13'4 7.8
2017-Oct-17 14:00N 70°26' E 022°01'4 7.7
2017-Oct-17 13:30N 70°25' E 021°50'4 7.7
2017-Oct-17 13:00N 70°23' E 021°40'4 8.1
2017-Oct-17 12:30N 70°20' E 021°32'4 8.2
2017-Oct-17 12:00N 70°17' E 021°23'4 7.9
2017-Oct-17 11:30N 70°15' E 021°14'4 7.8
2017-Oct-17 11:00N 70°12' E 021°08'4 8.7
2017-Oct-17 10:30N 70°07' E 021°05'4 8.1
2017-Oct-17 10:00N 70°04' E 021°02'2 3.4
2017-Oct-17 09:30N 70°02' E 020°59'0 0.0
2017-Oct-17 09:00N 70°02' E 020°59'0 0.0
2017-Oct-17 08:30N 70°02' E 020°59'1 2.0
2017-Oct-17 08:00N 70°02' E 021°02'1 1.9
2017-Oct-17 07:29N 70°02' E 020°59'0 0.0
2017-Oct-17 07:00N 70°02' E 020°59'0 0.0
2017-Oct-17 06:30N 70°02' E 020°59'0 0.0
2017-Oct-17 06:00N 70°02' E 020°59'0 0.0
2017-Oct-17 05:30N 70°02' E 020°59'0 0.0
2017-Oct-17 04:59N 70°02' E 020°59'0 0.0
2017-Oct-17 04:30N 70°02' E 020°59'0 0.0
2017-Oct-17 04:00N 70°02' E 020°59'0 0.0
2017-Oct-17 03:30N 70°02' E 020°59'0 0.0
2017-Oct-17 03:00N 70°02' E 020°59'0 0.0
2017-Oct-17 02:30N 70°02' E 020°59'0 0.0
2017-Oct-17 02:00N 70°02' E 020°59'0 0.0
2017-Oct-17 01:30N 70°02' E 020°59'2 3.7
2017-Oct-17 01:00N 70°04' E 020°58'4 8.7
2017-Oct-17 00:30N 70°02' E 020°46'4 8.5
2017-Oct-17 00:00N 70°01' E 020°34'4 8.1
2017-Oct-16 23:30N 69°60' E 020°23'4 8.1
2017-Oct-16 23:00N 69°58' E 020°12'3 6.5
2017-Oct-16 22:30N 69°55' E 020°06'0 0.2
2017-Oct-16 22:00N 69°56' E 020°06'1 1.9
2017-Oct-16 21:30N 69°57' E 020°06'2 4.7
2017-Oct-16 21:00N 69°55' E 020°10'0 0.4
2017-Oct-16 20:30N 69°55' E 020°10'0 0.1
2017-Oct-16 20:00N 69°55' E 020°10'0 0.0
2017-Oct-16 19:30N 69°55' E 020°10'0 0.0
2017-Oct-16 19:00N 69°55' E 020°10'0 0.0
2017-Oct-16 18:30N 69°55' E 020°10'0 0.0
2017-Oct-16 18:00N 69°55' E 020°10'0 0.0
2017-Oct-16 17:30N 69°55' E 020°10'0 0.0
2017-Oct-16 17:00N 69°55' E 020°10'0 0.0
2017-Oct-16 16:30N 69°55' E 020°10'0 0.0
2017-Oct-16 16:00N 69°55' E 020°10'0 0.0
2017-Oct-16 15:30N 69°55' E 020°10'0 0.0
2017-Oct-16 15:00N 69°55' E 020°10'0 0.0
2017-Oct-16 14:00N 69°55' E 020°10'0 0.0
2017-Oct-16 13:30N 69°55' E 020°10'0 0.0
2017-Oct-16 13:00N 69°55' E 020°10'0 0.0
2017-Oct-16 12:30N 69°55' E 020°10'0 0.0
2017-Oct-16 12:00N 69°55' E 020°10'0 0.0
2017-Oct-16 11:30N 69°55' E 020°10'0 0.0
2017-Oct-16 11:00N 69°55' E 020°10'0 0.0
2017-Oct-16 10:30N 69°55' E 020°10'0 0.0
2017-Oct-16 10:00N 69°55' E 020°10'0 0.0
2017-Oct-16 09:30N 69°55' E 020°10'0 0.0
2017-Oct-16 08:59N 69°55' E 020°10'0 0.1
2017-Oct-16 08:30N 69°55' E 020°10'0 0.1
2017-Oct-16 08:00N 69°55' E 020°10'0 0.0
2017-Oct-16 07:30N 69°55' E 020°10'0 0.0
2017-Oct-16 07:00N 69°55' E 020°10'0 0.0
2017-Oct-16 06:30N 69°55' E 020°10'0 0.0
2017-Oct-16 05:59N 69°55' E 020°10'0 0.0
2017-Oct-16 05:30N 69°55' E 020°10'0 0.0
2017-Oct-16 05:00N 69°55' E 020°10'0 0.0
2017-Oct-16 04:30N 69°55' E 020°10'0 0.0
2017-Oct-16 03:59N 69°55' E 020°10'0 0.0
2017-Oct-16 03:30N 69°55' E 020°10'0 0.0
2017-Oct-16 02:59N 69°55' E 020°10'0 0.0
2017-Oct-16 02:30N 69°55' E 020°10'0 0.0
2017-Oct-16 02:00N 69°55' E 020°10'0 0.0
2017-Oct-16 01:30N 69°55' E 020°10'0 0.0
2017-Oct-16 01:00N 69°55' E 020°10'0 0.0
2017-Oct-16 00:30N 69°55' E 020°10'0 0.0
2017-Oct-16 00:00N 69°55' E 020°10'0 0.0
2017-Oct-15 23:30N 69°55' E 020°10'0 0.0
2017-Oct-15 23:00N 69°55' E 020°10'0 0.0
2017-Oct-15 22:30N 69°55' E 020°10'0 0.0
2017-Oct-15 21:59N 69°55' E 020°10'0 0.0
2017-Oct-15 21:30N 69°55' E 020°10'0 0.0
2017-Oct-15 21:00N 69°55' E 020°10'0 0.0
2017-Oct-15 20:30N 69°55' E 020°10'0 0.0
2017-Oct-15 20:00N 69°55' E 020°10'0 0.0
2017-Oct-15 19:29N 69°55' E 020°10'0 0.0
2017-Oct-15 19:00N 69°55' E 020°10'0 0.0
2017-Oct-15 18:30N 69°55' E 020°10'0 0.0
2017-Oct-15 18:00N 69°55' E 020°10'0 0.0
2017-Oct-15 17:30N 69°55' E 020°10'0 0.0
2017-Oct-15 17:00N 69°55' E 020°10'0 0.0
2017-Oct-15 16:30N 69°55' E 020°10'0 0.0
2017-Oct-15 16:00N 69°55' E 020°10'0 0.0
2017-Oct-15 15:30N 69°55' E 020°10'0 0.0
2017-Oct-15 15:00N 69°55' E 020°10'0 0.0
2017-Oct-15 14:00N 69°55' E 020°10'0 0.0
2017-Oct-15 13:30N 69°55' E 020°10'0 0.0
2017-Oct-15 13:00N 69°55' E 020°10'0 0.0
2017-Oct-15 12:30N 69°55' E 020°10'0 0.0
2017-Oct-15 11:59N 69°55' E 020°10'0 0.0
2017-Oct-15 11:30N 69°55' E 020°10'0 0.0
2017-Oct-15 11:00N 69°55' E 020°10'0 0.0
2017-Oct-15 10:30N 69°55' E 020°10'0 0.0
2017-Oct-15 09:59N 69°55' E 020°10'0 0.0
2017-Oct-15 09:30N 69°55' E 020°10'0 0.0
2017-Oct-15 09:00N 69°55' E 020°10'0 0.0
2017-Oct-15 08:30N 69°55' E 020°10'0 0.0
2017-Oct-15 08:00N 69°55' E 020°10'0 0.0
2017-Oct-15 07:30N 69°55' E 020°10'0 0.0
2017-Oct-15 07:00N 69°55' E 020°10'0 0.0
2017-Oct-15 06:30N 69°55' E 020°10'0 0.0
2017-Oct-15 06:00N 69°55' E 020°10'0 0.0
2017-Oct-15 05:30N 69°55' E 020°10'0 0.0
2017-Oct-15 05:00N 69°55' E 020°10'0 0.0
2017-Oct-15 04:30N 69°55' E 020°10'0 0.0
2017-Oct-15 04:00N 69°55' E 020°10'0 0.0
2017-Oct-15 03:30N 69°55' E 020°10'0 0.0
2017-Oct-15 03:00N 69°55' E 020°10'0 0.0
2017-Oct-15 02:30N 69°55' E 020°10'0 0.0
2017-Oct-15 02:00N 69°55' E 020°10'0 0.0
2017-Oct-15 01:30N 69°55' E 020°10'0 0.0
2017-Oct-15 01:00N 69°55' E 020°10'0 0.0
2017-Oct-15 00:30N 69°55' E 020°10'0 0.0
2017-Oct-14 23:59N 69°55' E 020°10'0 0.0
2017-Oct-14 23:30N 69°55' E 020°10'0 0.0
2017-Oct-14 23:00N 69°55' E 020°10'0 0.0
2017-Oct-14 22:30N 69°55' E 020°10'0 0.0
2017-Oct-14 22:00N 69°55' E 020°10'0 0.0
2017-Oct-14 21:30N 69°55' E 020°10'0 0.0
2017-Oct-14 21:00N 69°55' E 020°10'0 0.0
2017-Oct-14 20:30N 69°55' E 020°10'0 0.0
2017-Oct-14 20:00N 69°55' E 020°10'0 0.0
2017-Oct-14 19:30N 69°55' E 020°10'0 0.0
2017-Oct-14 19:00N 69°55' E 020°10'0 0.0
2017-Oct-14 18:30N 69°55' E 020°10'0 0.0
2017-Oct-14 17:59N 69°55' E 020°10'0 0.0
2017-Oct-14 17:30N 69°55' E 020°10'0 0.0
2017-Oct-14 17:00N 69°55' E 020°10'0 0.0
2017-Oct-14 16:30N 69°55' E 020°10'2 4.3
2017-Oct-14 16:00N 69°57' E 020°10'4 8.1
2017-Oct-14 15:30N 69°55' E 019°59'4 8.3
2017-Oct-14 15:00N 69°52' E 019°50'4 8.4
2017-Oct-14 14:30N 69°50' E 019°39'4 8.7
2017-Oct-14 14:00N 69°49' E 019°28'4 8.6
2017-Oct-14 13:30N 69°47' E 019°16'4 8.5
2017-Oct-14 13:00N 69°45' E 019°06'4 8.5
2017-Oct-14 12:30N 69°41' E 019°01'2 3.3
2017-Oct-14 12:00N 69°39' E 018°58'0 0.0
2017-Oct-14 11:30N 69°39' E 018°58'0 0.0
2017-Oct-14 11:00N 69°39' E 018°58'0 0.0
2017-Oct-14 10:30N 69°39' E 018°58'0 0.0
2017-Oct-14 10:00N 69°39' E 018°58'0 0.0
2017-Oct-14 09:30N 69°39' E 018°58'0 0.0
2017-Oct-14 08:59N 69°39' E 018°58'0 0.0
2017-Oct-14 08:30N 69°39' E 018°58'0 0.0
2017-Oct-14 08:00N 69°39' E 018°58'0 0.0
2017-Oct-14 07:30N 69°39' E 018°58'0 0.0
2017-Oct-14 07:00N 69°39' E 018°58'0 0.0
2017-Oct-14 06:29N 69°39' E 018°58'0 0.0
2017-Oct-14 06:00N 69°39' E 018°58'0 0.0
2017-Oct-14 05:30N 69°39' E 018°58'0 0.0
2017-Oct-14 05:00N 69°39' E 018°58'0 0.0
2017-Oct-14 04:29N 69°39' E 018°58'0 0.0
2017-Oct-14 03:59N 69°39' E 018°58'0 0.0
2017-Oct-14 03:30N 69°39' E 018°58'0 0.0
2017-Oct-14 03:00N 69°39' E 018°58'0 0.0
2017-Oct-14 02:30N 69°39' E 018°58'0 0.0
2017-Oct-14 01:59N 69°39' E 018°58'0 0.0
2017-Oct-14 01:30N 69°39' E 018°58'0 0.0
2017-Oct-14 01:00N 69°39' E 018°58'0 0.0
2017-Oct-14 00:30N 69°39' E 018°58'0 0.0
2017-Oct-14 00:00N 69°39' E 018°58'0 0.0
2017-Oct-13 23:30N 69°39' E 018°58'0 0.0
2017-Oct-13 23:00N 69°39' E 018°58'0 0.0
2017-Oct-13 22:30N 69°39' E 018°58'0 0.0
2017-Oct-13 22:00N 69°39' E 018°58'0 0.0
2017-Oct-13 21:30N 69°39' E 018°58'0 0.0
2017-Oct-13 21:00N 69°39' E 018°58'0 0.0
2017-Oct-13 20:30N 69°39' E 018°58'0 0.0
2017-Oct-13 20:00N 69°39' E 018°58'0 0.0
2017-Oct-13 19:30N 69°39' E 018°58'0 0.0
2017-Oct-13 19:00N 69°39' E 018°58'0 0.0
2017-Oct-13 18:30N 69°39' E 018°58'0 0.0
2017-Oct-13 18:00N 69°39' E 018°58'0 0.0
2017-Oct-13 17:30N 69°39' E 018°58'0 0.0
2017-Oct-13 17:00N 69°39' E 018°58'0 0.0
2017-Oct-13 16:30N 69°39' E 018°58'0 0.0
2017-Oct-13 16:00N 69°39' E 018°58'0 0.0
2017-Oct-13 15:30N 69°39' E 018°58'0 0.0
2017-Oct-13 15:00N 69°39' E 018°58'0 0.0
2017-Oct-13 14:30N 69°39' E 018°58'0 0.0
2017-Oct-13 13:59N 69°39' E 018°58'0 0.3
2017-Oct-13 13:29N 69°39' E 018°58'0 0.3
2017-Oct-13 13:00N 69°39' E 018°58'0 0.0
2017-Oct-13 12:29N 69°39' E 018°58'0 0.0
2017-Oct-13 12:00N 69°39' E 018°58'0 0.0
2017-Oct-13 11:30N 69°39' E 018°58'0 0.0
2017-Oct-13 11:00N 69°39' E 018°58'0 0.0
2017-Oct-13 10:31N 69°39' E 018°58'0 0.0
2017-Oct-13 10:00N 69°39' E 018°58'0 0.0
2017-Oct-13 09:30N 69°39' E 018°58'0 0.0
2017-Oct-13 09:00N 69°39' E 018°58'0 0.0
2017-Oct-13 08:30N 69°39' E 018°58'0 0.0
2017-Oct-13 08:01N 69°39' E 018°58'  

Dump ship's entire track history